الصفحة الرئيسية
METAR-TAF:

METAR-TAF

مطار :

مطار تيد ستيفنز أنكوراج الدولي

أنكوراج, ألاسكا, الولايات المتحدة

دائرة عرض: 61-10-28N, خط طول: 149-59-46W, ارتفاع: 44 متر

مراقبة الطقس الحالي

تاريخ ووقت الإصدار 25 دقيقة قبل الساعة 10:53UTC
رياح هادئة
درجة الحرارة -4°درجة مئوية
الرطوبة 93%
ضغط 998 hPa
الرؤية: 16.1 كم
سماء صافية

METAR: PANC 221053Z 00000KT 10SM CLR M04/M05 A2946 RMK AO2 SLP978 T10391050

زمن: 02:18 (11:18 UTC)

توقعات

تاريخ ووقت الإصدار 5ساعات و 42 دقيقة قبل الساعة 05:36UTC
التوقعات صالحة من22 الساعة 06 UTC إلى 23 الساعة 12 UTC
ريح 4 عقدة من الشمال/الشمال الشرقي
الرؤية: 10 كم
غيوم مفككة على ارتفاع 6000 قدم
من 22 الساعة 1200 UTC
ريح 4 عقدة من الشمال/الشمال الشرقي
الرؤية: 10 كم
غيوم متفرقة على ارتفاع 7000 قدم
غيوم متفرقة على ارتفاع 12000 قدم

TAF: PANC 220536Z 2206/2312 03004KT P6SM BKN060 FM221200 03004KT P6SM SCT070 SCT120

أرصاد الطقس والتوقعات من أكثر من 4000 مطار (تقارير الطقس للمطار METAR والتنبؤ بالطقس بالمطارTAF).

المحطات المتاحة هي النقط الصفراء والحمراء على الخريطة.

حرك المؤشر فوق النقطة لمعرفة اسم المحطة.

ثم انقر لمعرفة أرصاد وتوقعات الطقس.

لتغيير الخارطة: اضغط على الأزرار الخضراء مع رمز الصليب الأسود للتكبير. على الزر الأخضر مع شرطة للتصغير، أو على الأسهم الخضراء للخرائط المجاورة.


METAR-TAF: